createdAt,value
2022-09-28T00:01:19.505Z,99162.16
2022-09-28T00:03:47.343Z,99181.09
2022-09-28T00:06:16.747Z,99168.19
2022-09-28T00:08:43.329Z,99165.59
2022-09-28T00:11:13.799Z,99178.38
2022-09-28T00:13:41.447Z,99175.38
2022-09-28T00:16:11.418Z,99172.00
2022-09-28T00:18:37.951Z,99168.47
2022-09-28T00:21:08.697Z,99164.47
2022-09-28T00:23:56.105Z,99160.25
2022-09-28T00:26:23.626Z,99177.63
2022-09-28T00:29:00.489Z,99164.44
2022-09-28T00:31:30.239Z,99164.69
2022-09-28T00:33:57.289Z,99159.25
2022-09-28T00:36:28.511Z,99153.66
2022-09-28T00:38:58.681Z,99158.31
2022-09-28T00:41:27.619Z,99151.22
2022-09-28T00:44:40.197Z,99167.88
2022-09-28T00:47:34.761Z,99150.69
2022-09-28T00:50:12.322Z,99154.22
2022-09-28T00:52:47.204Z,99145.59
2022-09-28T00:55:17.578Z,99147.22
2022-09-28T00:57:49.383Z,99146.44
2022-09-28T01:00:15.989Z,99154.66
2022-09-28T01:02:44.176Z,99142.81
2022-09-28T01:05:11.467Z,99144.91
2022-09-28T01:07:38.824Z,99143.78
2022-09-28T01:10:05.914Z,99148.44
2022-09-28T01:12:32.402Z,99142.19
2022-09-28T01:15:00.598Z,99144.09
2022-09-28T01:17:57.447Z,99144.38
2022-09-28T01:20:34.548Z,99135.81
2022-09-28T01:23:44.345Z,99137.81
2022-09-28T01:26:36.569Z,99131.03
2022-09-28T01:29:15.380Z,99132.31
2022-09-28T01:31:51.289Z,99128.41
2022-09-28T01:34:25.422Z,99143.84
2022-09-28T01:36:56.402Z,99137.13
2022-09-28T01:39:34.469Z,99134.00
2022-09-28T01:42:05.607Z,99138.59
2022-09-28T01:44:39.716Z,99138.94
2022-09-28T01:47:11.327Z,99134.53
2022-09-28T01:49:43.929Z,99129.97
2022-09-28T01:52:23.062Z,99132.72
2022-09-28T01:54:57.039Z,99129.13
2022-09-28T01:57:40.893Z,99126.69
2022-09-28T02:00:13.386Z,99130.13
2022-09-28T02:03:01.857Z,99125.94
2022-09-28T02:05:34.913Z,99127.38
2022-09-28T02:08:07.493Z,99130.94
2022-09-28T02:10:58.429Z,99124.97
2022-09-28T02:13:40.801Z,99115.31
2022-09-28T02:16:16.541Z,99134.53
2022-09-28T02:18:44.030Z,99128.75
2022-09-28T02:21:17.547Z,99136.88
2022-09-28T02:23:53.904Z,99132.84
2022-09-28T02:26:24.726Z,99139.63
2022-09-28T02:28:51.215Z,99133.91
2022-09-28T02:31:18.058Z,99135.22
2022-09-28T02:33:46.309Z,99146.44
2022-09-28T02:36:12.978Z,99138.41
2022-09-28T02:38:39.453Z,99144.63
2022-09-28T02:41:41.897Z,99140.31
2022-09-28T02:44:20.485Z,99141.09
2022-09-28T02:46:58.802Z,99139.91
2022-09-28T02:49:57.669Z,99142.19
2022-09-28T02:52:59.400Z,99141.34
2022-09-28T02:55:48.323Z,99138.41
2022-09-28T02:58:25.373Z,99138.31
2022-09-28T03:01:10.642Z,99139.97
2022-09-28T03:03:55.956Z,99140.81
2022-09-28T03:06:30.793Z,99135.22
2022-09-28T03:09:07.324Z,99132.03
2022-09-28T03:11:40.754Z,99141.50
2022-09-28T03:14:07.234Z,99121.91
2022-09-28T03:16:33.765Z,99136.34
2022-09-28T03:19:00.275Z,99132.91
2022-09-28T03:21:26.785Z,99127.00
2022-09-28T03:23:53.276Z,99133.75
2022-09-28T03:26:19.807Z,99140.47
2022-09-28T03:28:46.484Z,99138.91
2022-09-28T03:31:12.960Z,99138.47
2022-09-28T03:33:39.481Z,99137.00
2022-09-28T03:36:06.141Z,99144.53
2022-09-28T03:38:32.653Z,99142.88
2022-09-28T03:41:00.517Z,99138.56
2022-09-28T03:43:29.596Z,99129.13
2022-09-28T03:45:58.364Z,99138.28
2022-09-28T03:48:32.041Z,99141.66
2022-09-28T03:51:01.805Z,99133.91
2022-09-28T03:53:31.548Z,99135.59
2022-09-28T03:56:03.745Z,99143.47
2022-09-28T03:58:30.200Z,99135.88
2022-09-28T04:01:05.411Z,99142.34
2022-09-28T04:03:31.890Z,99141.97
2022-09-28T04:05:58.872Z,99132.47
2022-09-28T04:08:25.453Z,99140.50
2022-09-28T04:10:52.087Z,99141.97
2022-09-28T04:13:18.567Z,99141.97
2022-09-28T04:15:52.944Z,99140.16
2022-09-28T04:18:19.828Z,99149.13
2022-09-28T04:20:48.023Z,99144.38
2022-09-28T04:23:15.446Z,99156.19
2022-09-28T04:25:42.252Z,99134.38
2022-09-28T04:28:27.623Z,99157.25
2022-09-28T04:30:54.060Z,99153.22
2022-09-28T04:33:20.518Z,99158.81
2022-09-28T04:35:46.971Z,99158.38
2022-09-28T04:38:13.431Z,99158.38
2022-09-28T04:40:40.147Z,99159.81
2022-09-28T04:43:06.677Z,99161.34
2022-09-28T04:45:33.189Z,99158.16
2022-09-28T04:47:59.692Z,99144.09
2022-09-28T04:50:26.168Z,99153.06
2022-09-28T04:52:52.642Z,99159.88
2022-09-28T04:55:20.538Z,99151.53
2022-09-28T04:57:46.973Z,99157.38
2022-09-28T05:00:13.989Z,99146.44
2022-09-28T05:02:40.454Z,99141.66
2022-09-28T05:05:07.355Z,99154.97
2022-09-28T05:07:36.831Z,99147.03
2022-09-28T05:10:03.536Z,99152.50
2022-09-28T05:12:29.944Z,99158.06
2022-09-28T05:14:56.650Z,99146.34
2022-09-28T05:17:23.339Z,99161.78
2022-09-28T05:19:49.814Z,99160.41
2022-09-28T05:22:16.445Z,99153.25
2022-09-28T05:24:42.952Z,99152.50
2022-09-28T05:27:09.435Z,99151.69
2022-09-28T05:29:35.895Z,99161.88
2022-09-28T05:32:02.463Z,99155.16
2022-09-28T05:34:29.207Z,99146.97
2022-09-28T05:36:55.752Z,99158.06
2022-09-28T05:39:22.228Z,99149.88
2022-09-28T05:41:49.231Z,99156.47
2022-09-28T05:44:15.710Z,99147.72
2022-09-28T05:46:42.195Z,99147.13
2022-09-28T05:49:08.607Z,99143.78
2022-09-28T05:51:35.036Z,99148.44
2022-09-28T05:54:05.694Z,99133.22
2022-09-28T05:56:33.030Z,99150.41
2022-09-28T05:58:59.567Z,99150.69
2022-09-28T06:01:26.298Z,99153.44
2022-09-28T06:03:52.773Z,99157.50
2022-09-28T06:06:19.191Z,99161.41
2022-09-28T06:08:46.402Z,99154.22
2022-09-28T06:11:12.913Z,99159.41
2022-09-28T06:13:42.380Z,99163.81
2022-09-28T06:16:10.484Z,99158.78
2022-09-28T06:18:36.985Z,99160.94
2022-09-28T06:21:03.917Z,99170.03
2022-09-28T06:23:30.407Z,99167.09
2022-09-28T06:25:59.114Z,99172.97
2022-09-28T06:28:26.885Z,99171.75
2022-09-28T06:30:54.091Z,99180.25
2022-09-28T06:33:20.698Z,99181.78
2022-09-28T06:35:47.874Z,99187.84
2022-09-28T06:38:14.369Z,99184.38
2022-09-28T06:40:40.874Z,99189.81
2022-09-28T06:43:11.210Z,99189.34
2022-09-28T06:45:38.658Z,99186.09
2022-09-28T06:48:05.665Z,99188.13
2022-09-28T06:50:35.892Z,99188.44
2022-09-28T06:53:02.404Z,99186.78
2022-09-28T06:55:29.651Z,99191.00
2022-09-28T06:58:01.331Z,99203.38
2022-09-28T07:00:28.826Z,99199.03
2022-09-28T07:02:55.402Z,99208.88
2022-09-28T07:05:26.682Z,99206.81
2022-09-28T07:07:57.362Z,99204.75
2022-09-28T07:10:26.973Z,99207.03
2022-09-28T07:12:54.589Z,99212.34
2022-09-28T07:15:21.965Z,99214.00
2022-09-28T07:18:00.379Z,99218.94
2022-09-28T07:20:29.483Z,99222.03
2022-09-28T07:23:12.878Z,99226.69
2022-09-28T07:25:47.884Z,99227.91
2022-09-28T07:28:15.321Z,99230.16
2022-09-28T07:30:44.248Z,99237.19
2022-09-28T07:33:12.689Z,99237.56
2022-09-28T07:35:39.250Z,99235.25
2022-09-28T07:38:07.392Z,99242.38
2022-09-28T07:40:54.221Z,99244.25
2022-09-28T07:43:21.772Z,99245.06
2022-09-28T07:45:51.121Z,99251.47
2022-09-28T07:48:19.232Z,99251.53
2022-09-28T07:50:51.785Z,99255.63
2022-09-28T07:53:22.870Z,99259.53
2022-09-28T07:55:57.365Z,99260.06
2022-09-28T07:58:23.824Z,99257.63
2022-09-28T08:00:50.640Z,99264.28
2022-09-28T08:03:18.596Z,99262.22
2022-09-28T08:05:47.370Z,99261.69
2022-09-28T08:08:14.966Z,99266.88
2022-09-28T08:10:47.276Z,99270.50
2022-09-28T08:13:16.284Z,99267.38
2022-09-28T08:15:42.896Z,99264.88
2022-09-28T08:18:09.917Z,99271.03
2022-09-28T08:20:55.276Z,99266.63
2022-09-28T08:23:21.827Z,99266.53
2022-09-28T08:25:49.360Z,99281.06
2022-09-28T08:28:19.913Z,99279.41
2022-09-28T08:30:47.627Z,99284.50
2022-09-28T08:33:15.566Z,99286.25
2022-09-28T08:35:42.524Z,99285.53
2022-09-28T08:38:09.195Z,99294.97
2022-09-28T08:41:00.142Z,99289.16
2022-09-28T08:43:41.346Z,99298.63
2022-09-28T08:46:11.175Z,99298.88
2022-09-28T08:49:01.082Z,99308.38
2022-09-28T08:51:50.117Z,99305.59
2022-09-28T08:54:35.664Z,99303.88
2022-09-28T08:57:17.356Z,99300.84
2022-09-28T08:59:49.387Z,99305.59
2022-09-28T09:02:20.744Z,99306.53
2022-09-28T09:04:47.664Z,99318.22
2022-09-28T09:07:31.860Z,99327.75
2022-09-28T09:10:16.744Z,99330.03
2022-09-28T09:13:03.445Z,99334.94
2022-09-28T09:15:52.203Z,99337.47
2022-09-28T09:18:49.678Z,99336.69
2022-09-28T09:21:42.562Z,99340.91
2022-09-28T09:24:39.211Z,99339.81
2022-09-28T09:27:28.675Z,99339.81
2022-09-28T09:30:04.275Z,99343.75
2022-09-28T09:33:05.158Z,99346.81
2022-09-28T09:36:02.727Z,99344.16
2022-09-28T09:38:29.161Z,99352.25
2022-09-28T09:41:19.720Z,99356.03
2022-09-28T09:44:11.622Z,99354.34
2022-09-28T09:46:51.735Z,99353.19
2022-09-28T09:49:24.726Z,99364.88
2022-09-28T09:52:11.203Z,99358.06
2022-09-28T09:54:40.607Z,99368.28
2022-09-28T09:57:29.303Z,99365.06
2022-09-28T09:59:58.991Z,99366.00
2022-09-28T10:02:25.493Z,99371.88
2022-09-28T10:04:59.886Z,99368.06
2022-09-28T10:07:53.582Z,99363.09
2022-09-28T10:10:28.627Z,99363.81
2022-09-28T10:12:56.330Z,99358.03
2022-09-28T10:15:28.307Z,99363.56
2022-09-28T10:17:57.152Z,99357.44
2022-09-28T10:20:25.552Z,99360.34
2022-09-28T10:22:52.366Z,99366.47
2022-09-28T10:25:19.998Z,99362.09
2022-09-28T10:27:49.546Z,99369.94
2022-09-28T10:30:25.337Z,99367.84
2022-09-28T10:32:55.174Z,99362.94
2022-09-28T10:35:27.153Z,99366.91
2022-09-28T10:37:57.996Z,99361.75
2022-09-28T10:40:30.568Z,99376.53
2022-09-28T10:43:15.647Z,99372.19
2022-09-28T10:45:42.214Z,99379.56
2022-09-28T10:48:22.550Z,99369.19
2022-09-28T10:51:08.075Z,99375.97
2022-09-28T10:53:38.596Z,99375.38
2022-09-28T10:56:20.210Z,99379.94
2022-09-28T10:58:46.670Z,99378.66
2022-09-28T11:01:33.430Z,99368.94
2022-09-28T11:04:08.016Z,99366.78
2022-09-28T11:06:40.251Z,99377.38
2022-09-28T11:09:31.122Z,99369.19
2022-09-28T11:11:59.781Z,99365.16
2022-09-28T11:14:28.914Z,99376.19
2022-09-28T11:17:15.082Z,99375.75
2022-09-28T11:19:42.224Z,99366.38
2022-09-28T11:22:36.397Z,99374.44
2022-09-28T11:25:32.239Z,99368.97
2022-09-28T11:28:04.516Z,99367.53
2022-09-28T11:30:51.956Z,99372.19
2022-09-28T11:33:40.037Z,99381.84
2022-09-28T11:36:18.338Z,99374.84
2022-09-28T11:38:59.772Z,99365.84
2022-09-28T11:41:48.432Z,99372.47
2022-09-28T11:44:37.244Z,99374.78
2022-09-28T11:47:09.886Z,99373.78
2022-09-28T11:49:48.280Z,99380.28
2022-09-28T11:52:33.009Z,99372.34
2022-09-28T11:55:05.015Z,99369.38
2022-09-28T11:57:38.555Z,99380.94
2022-09-28T12:00:26.000Z,99366.84
2022-09-28T12:03:01.367Z,99369.88
2022-09-28T12:05:41.976Z,99377.13
2022-09-28T12:08:30.252Z,99367.50
2022-09-28T12:11:02.793Z,99367.88
2022-09-28T12:13:35.258Z,99374.97
2022-09-28T12:21:38.160Z,99371.31
2022-09-28T12:24:27.920Z,99371.41
2022-09-28T12:27:04.630Z,99368.25
2022-09-28T12:29:55.108Z,99361.97
2022-09-28T12:32:46.514Z,99369.09
2022-09-28T12:35:41.208Z,99369.38
2022-09-28T12:38:22.465Z,99375.88
2022-09-28T12:40:54.839Z,99372.47
2022-09-28T12:43:54.598Z,99369.41
2022-09-28T12:46:48.791Z,99367.31
2022-09-28T12:52:34.903Z,99369.63
2022-09-28T12:55:13.007Z,99369.94
2022-09-28T12:57:58.269Z,99368.97
2022-09-28T13:00:32.205Z,99373.94
2022-09-28T13:03:19.091Z,99370.59
2022-09-28T13:06:22.807Z,99369.97
2022-09-28T13:09:20.352Z,99379.00
2022-09-28T13:12:01.848Z,99371.19
2022-09-28T13:14:55.188Z,99367.00
2022-09-28T13:17:33.958Z,99370.28
2022-09-28T13:20:25.080Z,99366.56
2022-09-28T13:23:12.610Z,99363.22
2022-09-28T13:25:43.980Z,99357.63
2022-09-28T13:28:15.511Z,99354.75
2022-09-28T13:30:45.177Z,99363.56
2022-09-28T13:33:20.049Z,99362.41
2022-09-28T13:35:46.646Z,99366.38
2022-09-28T13:38:19.089Z,99364.53
2022-09-28T13:41:12.797Z,99361.47
2022-09-28T13:43:53.494Z,99359.31
2022-09-28T13:46:48.019Z,99361.03
2022-09-28T13:49:32.652Z,99354.84
2022-09-28T13:52:21.839Z,99355.13
2022-09-28T13:55:17.635Z,99356.06
2022-09-28T13:58:00.484Z,99356.06
2022-09-28T14:00:29.690Z,99356.56
2022-09-28T14:03:16.818Z,99360.91
2022-09-28T14:06:02.900Z,99356.38
2022-09-28T14:08:38.421Z,99358.09
2022-09-28T14:11:26.970Z,99366.13
2022-09-28T14:13:59.337Z,99360.72
2022-09-28T14:16:31.893Z,99356.09
2022-09-28T14:19:01.304Z,99361.19
2022-09-28T14:22:06.278Z,99371.13
2022-09-28T14:24:57.428Z,99363.84
2022-09-28T14:28:01.137Z,99368.47
2022-09-28T14:30:37.898Z,99371.25
2022-09-28T14:33:21.920Z,99374.34
2022-09-28T14:35:51.575Z,99372.16
2022-09-28T14:38:40.998Z,99372.44
2022-09-28T14:41:11.285Z,99369.94
2022-09-28T14:43:37.652Z,99362.72
2022-09-28T14:46:18.914Z,99366.00
2022-09-28T14:48:52.656Z,99373.59
2022-09-28T14:51:41.906Z,99366.44
2022-09-28T14:54:09.204Z,99361.50
2022-09-28T14:56:53.924Z,99361.34
2022-09-28T14:59:24.751Z,99361.69
2022-09-28T15:02:11.300Z,99361.34
2022-09-28T15:04:43.538Z,99370.75
2022-09-28T15:07:19.439Z,99372.06
2022-09-28T15:09:49.604Z,99374.16
2022-09-28T15:12:27.540Z,99383.19
2022-09-28T15:14:56.277Z,99377.47
2022-09-28T15:17:27.071Z,99388.28
2022-09-28T15:20:10.934Z,99379.84
2022-09-28T15:22:44.608Z,99380.09
2022-09-28T15:25:19.286Z,99385.34
2022-09-28T15:27:50.529Z,99383.28
2022-09-28T15:30:25.398Z,99385.09
2022-09-28T15:32:56.547Z,99395.03
2022-09-28T15:35:27.038Z,99388.00
2022-09-28T15:37:55.108Z,99390.34
2022-09-28T15:40:30.725Z,99393.06
2022-09-28T15:42:59.416Z,99392.56
2022-09-28T15:45:36.674Z,99399.22
2022-09-28T15:48:26.149Z,99393.75
2022-09-28T15:51:00.802Z,99407.84
2022-09-28T15:53:27.993Z,99404.72
2022-09-28T15:56:00.634Z,99409.63
2022-09-28T15:58:27.344Z,99413.84
2022-09-28T16:01:23.718Z,99418.91
2022-09-28T16:03:50.225Z,99406.84
2022-09-28T16:06:16.779Z,99416.16
2022-09-28T16:08:45.315Z,99423.94
2022-09-28T16:11:25.887Z,99425.84
2022-09-28T16:14:07.969Z,99420.09
2022-09-28T16:16:41.123Z,99422.53
2022-09-28T16:19:23.529Z,99435.22
2022-09-28T16:21:55.729Z,99443.66
2022-09-28T16:24:25.616Z,99443.09
2022-09-28T16:27:19.697Z,99436.47
2022-09-28T16:30:05.205Z,99433.44
2022-09-28T16:32:45.729Z,99438.88
2022-09-28T16:35:29.066Z,99441.09
2022-09-28T16:38:09.400Z,99441.00
2022-09-28T16:40:40.419Z,99452.00
2022-09-28T16:43:08.826Z,99453.56
2022-09-28T16:45:35.324Z,99462.00
2022-09-28T16:48:03.045Z,99454.91
2022-09-28T16:50:29.526Z,99463.88
2022-09-28T16:53:18.376Z,99464.31
2022-09-28T16:55:46.690Z,99464.91
2022-09-28T16:58:13.318Z,99478.63
2022-09-28T17:00:41.601Z,99462.28
2022-09-28T17:03:17.669Z,99483.50
2022-09-28T17:05:45.454Z,99489.22
2022-09-28T17:08:17.355Z,99486.66
2022-09-28T17:13:41.278Z,99487.22
2022-09-28T17:16:17.984Z,99489.97
2022-09-28T17:18:46.029Z,99482.19
2022-09-28T17:21:15.844Z,99496.41
2022-09-28T17:23:43.557Z,99486.97
2022-09-28T17:26:31.734Z,99491.56
2022-09-28T17:29:01.956Z,99496.38
2022-09-28T17:31:29.889Z,99491.69
2022-09-28T17:33:56.605Z,99495.22
2022-09-28T17:36:23.584Z,99496.78
2022-09-28T17:38:51.737Z,99489.88
2022-09-28T17:41:20.816Z,99504.53
2022-09-28T17:43:48.704Z,99499.53
2022-09-28T17:46:31.371Z,99504.81
2022-09-28T17:48:59.959Z,99501.84
2022-09-28T17:51:28.295Z,99501.94
2022-09-28T17:53:56.167Z,99501.59
2022-09-28T17:56:26.397Z,99501.97
2022-09-28T17:58:57.749Z,99505.69
2022-09-28T18:01:24.385Z,99508.38
2022-09-28T18:03:50.892Z,99509.53
2022-09-28T18:06:22.692Z,99503.19
2022-09-28T18:08:49.828Z,99516.63
2022-09-28T18:11:17.363Z,99518.28
2022-09-28T18:13:45.951Z,99516.81
2022-09-28T18:16:13.721Z,99514.47
2022-09-28T18:18:41.399Z,99504.50
2022-09-28T18:21:08.444Z,99519.84
2022-09-28T18:23:36.755Z,99516.31
2022-09-28T18:26:03.997Z,99514.84
2022-09-28T18:28:31.182Z,99514.31
2022-09-28T18:30:57.765Z,99515.72
2022-09-28T18:33:24.283Z,99513.00
2022-09-28T18:35:54.801Z,99509.47
2022-09-28T18:38:21.592Z,99507.91
2022-09-28T18:40:48.405Z,99510.94
2022-09-28T18:43:15.337Z,99510.06
2022-09-28T18:45:41.741Z,99518.81
2022-09-28T18:48:08.194Z,99522.47
2022-09-28T18:50:35.165Z,99514.34
2022-09-28T18:53:11.835Z,99527.72
2022-09-28T18:55:42.653Z,99530.84
2022-09-28T18:58:10.481Z,99528.19
2022-09-28T19:00:41.920Z,99513.38
2022-09-28T19:03:11.046Z,99524.00
2022-09-28T19:05:44.117Z,99515.38
2022-09-28T19:08:10.590Z,99521.75
2022-09-28T19:10:37.148Z,99517.94
2022-09-28T19:13:03.681Z,99506.75
2022-09-28T19:15:30.211Z,99519.81
2022-09-28T19:17:57.097Z,99527.50
2022-09-28T19:20:23.609Z,99535.13
2022-09-28T19:22:50.976Z,99532.09
2022-09-28T19:25:17.474Z,99532.59
2022-09-28T19:27:45.418Z,99527.22
2022-09-28T19:30:12.522Z,99543.84
2022-09-28T19:32:39.245Z,99539.31
2022-09-28T19:35:05.805Z,99543.69
2022-09-28T19:37:35.363Z,99546.13
2022-09-28T19:40:03.821Z,99552.41
2022-09-28T19:42:30.250Z,99554.06
2022-09-28T19:44:57.210Z,99546.34
2022-09-28T19:47:23.688Z,99552.66
2022-09-28T19:49:50.118Z,99566.41
2022-09-28T19:52:17.246Z,99558.03
2022-09-28T19:54:58.127Z,99561.94
2022-09-28T19:57:27.776Z,99562.78
2022-09-28T19:59:59.241Z,99570.75
2022-09-28T20:02:28.696Z,99565.38
2022-09-28T20:04:55.372Z,99563.78
2022-09-28T20:07:21.896Z,99582.72
2022-09-28T20:09:48.361Z,99576.56
2022-09-28T20:12:14.831Z,99577.56
2022-09-28T20:14:41.293Z,99587.41
2022-09-28T20:17:08.016Z,99593.81
2022-09-28T20:19:35.050Z,99587.63
2022-09-28T20:22:02.862Z,99583.44
2022-09-28T20:24:29.843Z,99580.09
2022-09-28T20:26:56.402Z,99587.97
2022-09-28T20:29:24.265Z,99580.28
2022-09-28T20:31:51.719Z,99589.28
2022-09-28T20:34:18.373Z,99583.88
2022-09-28T20:36:44.847Z,99589.28
2022-09-28T20:39:12.038Z,99589.28
2022-09-28T20:41:38.662Z,99581.47
2022-09-28T20:44:14.288Z,99583.81
2022-09-28T20:46:40.927Z,99592.16
2022-09-28T20:49:07.767Z,99585.94
2022-09-28T20:51:34.412Z,99589.16
2022-09-28T20:54:01.065Z,99594.34
2022-09-28T20:56:28.884Z,99600.22
2022-09-28T20:58:56.820Z,99593.13
2022-09-28T21:01:28.566Z,99594.69
2022-09-28T21:03:57.614Z,99600.22
2022-09-28T21:06:29.758Z,99600.22
2022-09-28T21:08:56.494Z,99611.72
2022-09-28T21:11:24.504Z,99608.97
2022-09-28T21:13:57.074Z,99598.44
2022-09-28T21:16:23.956Z,99603.97
2022-09-28T21:18:50.515Z,99611.47
2022-09-28T21:21:19.085Z,99615.09
2022-09-28T21:23:45.976Z,99620.69
2022-09-28T21:26:15.882Z,99614.03
2022-09-28T21:28:44.734Z,99613.66
2022-09-28T21:31:12.821Z,99616.41
2022-09-28T21:33:39.399Z,99616.06
2022-09-28T21:36:07.683Z,99610.97
2022-09-28T21:38:34.971Z,99619.66
2022-09-28T21:41:01.763Z,99614.97
2022-09-28T21:43:30.205Z,99615.00
2022-09-28T21:45:58.113Z,99613.16
2022-09-28T21:48:26.700Z,99617.84
2022-09-28T21:51:04.268Z,99609.56
2022-09-28T21:53:36.280Z,99617.84
2022-09-28T21:56:05.605Z,99608.34
2022-09-28T21:58:33.960Z,99615.84
2022-09-28T22:01:05.822Z,99613.91
2022-09-28T22:03:33.939Z,99603.34
2022-09-28T22:06:00.759Z,99615.50
2022-09-28T22:08:27.465Z,99609.25
2022-09-28T22:11:02.554Z,99623.88
2022-09-28T22:13:30.220Z,99619.13
2022-09-28T22:16:00.693Z,99614.13
2022-09-28T22:18:29.451Z,99617.69
2022-09-28T22:21:23.011Z,99625.97
2022-09-28T22:23:49.899Z,99623.63
2022-09-28T22:26:18.953Z,99624.50
2022-09-28T22:28:50.735Z,99619.44
2022-09-28T22:31:19.652Z,99622.28
2022-09-28T22:33:46.227Z,99622.72
2022-09-28T22:36:16.663Z,99634.19
2022-09-28T22:38:44.630Z,99629.13
2022-09-28T22:41:11.659Z,99630.41
2022-09-28T22:43:38.182Z,99632.44
2022-09-28T22:46:25.182Z,99638.03
2022-09-28T22:48:56.814Z,99633.31
2022-09-28T22:51:24.778Z,99625.88
2022-09-28T22:53:51.306Z,99634.22
2022-09-28T22:56:19.185Z,99629.94
2022-09-28T22:58:46.659Z,99620.22
2022-09-28T23:01:17.339Z,99627.34
2022-09-28T23:03:44.754Z,99632.06
2022-09-28T23:06:13.527Z,99628.19
2022-09-28T23:08:40.025Z,99635.97
2022-09-28T23:11:06.890Z,99629.66
2022-09-28T23:13:33.593Z,99625.75
2022-09-28T23:16:02.659Z,99637.09
2022-09-28T23:18:31.561Z,99628.50
2022-09-28T23:21:00.580Z,99625.38
2022-09-28T23:23:27.549Z,99638.38
2022-09-28T23:25:54.986Z,99641.16
2022-09-28T23:28:23.415Z,99641.97
2022-09-28T23:30:51.117Z,99644.34
2022-09-28T23:33:18.930Z,99636.88
2022-09-28T23:35:45.859Z,99640.91
2022-09-28T23:38:13.632Z,99625.28
2022-09-28T23:40:41.299Z,99629.25
2022-09-28T23:43:09.247Z,99626.91
2022-09-28T23:45:36.070Z,99626.91
2022-09-28T23:48:03.075Z,99628.91
2022-09-28T23:50:29.658Z,99613.19
2022-09-28T23:52:56.181Z,99626.94
2022-09-28T23:55:22.751Z,99628.56
2022-09-28T23:57:49.212Z,99627.03
